sensor_id;sensor_type;location;lat;lon;timestamp;P1;durP1;ratioP1;P2;durP2;ratioP2
22060;SDS011;11194;48.092;-1.382;2023-10-13T00:01:33;22.75;;;12.82;;
22060;SDS011;11194;48.092;-1.382;2023-10-13T00:03:59;19.02;;;12.32;;
22060;SDS011;11194;48.092;-1.382;2023-10-13T00:06:27;21.15;;;11.55;;
22060;SDS011;11194;48.092;-1.382;2023-10-13T00:08:53;15.55;;;10.30;;
22060;SDS011;11194;48.092;-1.382;2023-10-13T00:11:20;18.13;;;10.88;;
22060;SDS011;11194;48.092;-1.382;2023-10-13T00:13:47;19.77;;;10.02;;
22060;SDS011;11194;48.092;-1.382;2023-10-13T00:16:17;14.27;;;9.50;;
22060;SDS011;11194;48.092;-1.382;2023-10-13T00:18:46;18.42;;;9.75;;
22060;SDS011;11194;48.092;-1.382;2023-10-13T00:21:13;17.15;;;9.50;;
22060;SDS011;11194;48.092;-1.382;2023-10-13T00:23:40;15.10;;;9.27;;
22060;SDS011;11194;48.092;-1.382;2023-10-13T00:26:22;18.33;;;9.10;;
22060;SDS011;11194;48.092;-1.382;2023-10-13T00:28:52;14.45;;;8.35;;
22060;SDS011;11194;48.092;-1.382;2023-10-13T00:31:26;15.07;;;8.48;;
22060;SDS011;11194;48.092;-1.382;2023-10-13T00:33:58;13.27;;;7.38;;
22060;SDS011;11194;48.092;-1.382;2023-10-13T00:36:36;15.90;;;8.27;;
22060;SDS011;11194;48.092;-1.382;2023-10-13T00:39:02;14.27;;;7.47;;
22060;SDS011;11194;48.092;-1.382;2023-10-13T00:41:32;14.00;;;7.45;;
22060;SDS011;11194;48.092;-1.382;2023-10-13T00:44:16;17.50;;;6.85;;
22060;SDS011;11194;48.092;-1.382;2023-10-13T00:46:43;14.98;;;6.32;;
22060;SDS011;11194;48.092;-1.382;2023-10-13T00:49:10;22.15;;;7.45;;
22060;SDS011;11194;48.092;-1.382;2023-10-13T00:51:41;15.70;;;6.78;;
22060;SDS011;11194;48.092;-1.382;2023-10-13T00:54:12;14.23;;;6.95;;
22060;SDS011;11194;48.092;-1.382;2023-10-13T00:56:39;15.40;;;6.15;;
22060;SDS011;11194;48.092;-1.382;2023-10-13T00:59:22;17.73;;;6.53;;
22060;SDS011;11194;48.092;-1.382;2023-10-13T01:01:50;19.13;;;6.47;;
22060;SDS011;11194;48.092;-1.382;2023-10-13T01:04:19;13.88;;;6.28;;
22060;SDS011;11194;48.092;-1.382;2023-10-13T01:06:48;20.13;;;6.50;;
22060;SDS011;11194;48.092;-1.382;2023-10-13T01:09:14;11.50;;;5.70;;
22060;SDS011;11194;48.092;-1.382;2023-10-13T01:11:44;13.25;;;5.95;;
22060;SDS011;11194;48.092;-1.382;2023-10-13T01:14:11;13.63;;;6.25;;
22060;SDS011;11194;48.092;-1.382;2023-10-13T01:16:40;15.63;;;6.55;;
22060;SDS011;11194;48.092;-1.382;2023-10-13T01:19:11;14.60;;;6.75;;
22060;SDS011;11194;48.092;-1.382;2023-10-13T01:21:40;14.63;;;6.93;;
22060;SDS011;11194;48.092;-1.382;2023-10-13T01:24:07;12.73;;;6.65;;
22060;SDS011;11194;48.092;-1.382;2023-10-13T01:26:34;16.80;;;7.07;;
22060;SDS011;11194;48.092;-1.382;2023-10-13T01:29:04;20.02;;;7.10;;
22060;SDS011;11194;48.092;-1.382;2023-10-13T01:31:42;20.45;;;6.78;;
22060;SDS011;11194;48.092;-1.382;2023-10-13T01:34:18;16.35;;;7.32;;
22060;SDS011;11194;48.092;-1.382;2023-10-13T01:36:50;14.98;;;7.13;;
22060;SDS011;11194;48.092;-1.382;2023-10-13T01:39:16;15.38;;;6.85;;
22060;SDS011;11194;48.092;-1.382;2023-10-13T01:41:43;17.90;;;7.53;;
22060;SDS011;11194;48.092;-1.382;2023-10-13T01:44:09;16.40;;;7.55;;
22060;SDS011;11194;48.092;-1.382;2023-10-13T01:46:40;17.73;;;8.07;;
22060;SDS011;11194;48.092;-1.382;2023-10-13T01:49:07;15.73;;;7.40;;
22060;SDS011;11194;48.092;-1.382;2023-10-13T01:51:33;15.00;;;7.40;;
22060;SDS011;11194;48.092;-1.382;2023-10-13T01:54:00;18.75;;;7.40;;
22060;SDS011;11194;48.092;-1.382;2023-10-13T01:56:28;17.58;;;7.00;;
22060;SDS011;11194;48.092;-1.382;2023-10-13T01:58:56;18.85;;;6.72;;
22060;SDS011;11194;48.092;-1.382;2023-10-13T02:01:22;11.27;;;6.68;;
22060;SDS011;11194;48.092;-1.382;2023-10-13T02:03:57;12.20;;;7.18;;
22060;SDS011;11194;48.092;-1.382;2023-10-13T02:06:30;15.07;;;7.45;;
22060;SDS011;11194;48.092;-1.382;2023-10-13T02:08:59;14.98;;;7.20;;
22060;SDS011;11194;48.092;-1.382;2023-10-13T02:11:35;15.32;;;6.85;;
22060;SDS011;11194;48.092;-1.382;2023-10-13T02:14:02;18.55;;;7.43;;
22060;SDS011;11194;48.092;-1.382;2023-10-13T02:16:28;12.90;;;7.22;;
22060;SDS011;11194;48.092;-1.382;2023-10-13T02:18:56;17.63;;;7.53;;
22060;SDS011;11194;48.092;-1.382;2023-10-13T02:21:22;12.50;;;6.60;;
22060;SDS011;11194;48.092;-1.382;2023-10-13T02:23:57;15.00;;;6.70;;
22060;SDS011;11194;48.092;-1.382;2023-10-13T02:26:31;9.52;;;6.18;;
22060;SDS011;11194;48.092;-1.382;2023-10-13T02:29:03;19.63;;;7.25;;
22060;SDS011;11194;48.092;-1.382;2023-10-13T02:31:36;13.07;;;6.50;;
22060;SDS011;11194;48.092;-1.382;2023-10-13T02:34:02;12.57;;;6.82;;
22060;SDS011;11194;48.092;-1.382;2023-10-13T02:36:38;16.60;;;6.60;;
22060;SDS011;11194;48.092;-1.382;2023-10-13T02:39:14;13.15;;;6.85;;
22060;SDS011;11194;48.092;-1.382;2023-10-13T02:41:51;12.70;;;6.45;;
22060;SDS011;11194;48.092;-1.382;2023-10-13T02:44:20;12.45;;;6.68;;
22060;SDS011;11194;48.092;-1.382;2023-10-13T02:46:56;11.07;;;6.68;;
22060;SDS011;11194;48.092;-1.382;2023-10-13T02:49:25;11.85;;;6.80;;
22060;SDS011;11194;48.092;-1.382;2023-10-13T02:51:52;17.90;;;6.82;;
22060;SDS011;11194;48.092;-1.382;2023-10-13T02:54:18;11.63;;;6.35;;
22060;SDS011;11194;48.092;-1.382;2023-10-13T02:56:45;14.52;;;7.05;;
22060;SDS011;11194;48.092;-1.382;2023-10-13T02:59:21;14.98;;;6.90;;
22060;SDS011;11194;48.092;-1.382;2023-10-13T03:01:59;11.23;;;6.78;;
22060;SDS011;11194;48.092;-1.382;2023-10-13T03:04:25;11.95;;;7.18;;
22060;SDS011;11194;48.092;-1.382;2023-10-13T03:06:52;14.77;;;7.45;;
22060;SDS011;11194;48.092;-1.382;2023-10-13T03:09:18;13.23;;;7.60;;
22060;SDS011;11194;48.092;-1.382;2023-10-13T03:11:49;12.07;;;7.25;;
22060;SDS011;11194;48.092;-1.382;2023-10-13T03:14:19;23.48;;;8.18;;
22060;SDS011;11194;48.092;-1.382;2023-10-13T03:16:52;14.57;;;7.55;;
22060;SDS011;11194;48.092;-1.382;2023-10-13T03:19:18;19.65;;;8.07;;
22060;SDS011;11194;48.092;-1.382;2023-10-13T03:21:45;14.57;;;7.38;;
22060;SDS011;11194;48.092;-1.382;2023-10-13T03:24:22;18.67;;;8.10;;
22060;SDS011;11194;48.092;-1.382;2023-10-13T03:26:58;15.70;;;7.30;;
22060;SDS011;11194;48.092;-1.382;2023-10-13T03:29:33;14.02;;;7.70;;
22060;SDS011;11194;48.092;-1.382;2023-10-13T03:32:00;15.30;;;7.05;;
22060;SDS011;11194;48.092;-1.382;2023-10-13T03:34:32;13.02;;;6.28;;
22060;SDS011;11194;48.092;-1.382;2023-10-13T03:37:00;15.10;;;7.45;;
22060;SDS011;11194;48.092;-1.382;2023-10-13T03:39:35;13.88;;;7.03;;
22060;SDS011;11194;48.092;-1.382;2023-10-13T03:42:01;13.77;;;7.10;;
22060;SDS011;11194;48.092;-1.382;2023-10-13T03:44:30;13.25;;;6.32;;
22060;SDS011;11194;48.092;-1.382;2023-10-13T03:46:57;15.20;;;7.38;;
22060;SDS011;11194;48.092;-1.382;2023-10-13T03:49:34;14.05;;;6.95;;
22060;SDS011;11194;48.092;-1.382;2023-10-13T03:52:02;13.30;;;6.35;;
22060;SDS011;11194;48.092;-1.382;2023-10-13T03:54:30;12.90;;;6.63;;
22060;SDS011;11194;48.092;-1.382;2023-10-13T03:56:59;13.18;;;6.05;;
22060;SDS011;11194;48.092;-1.382;2023-10-13T03:59:29;11.35;;;6.47;;
22060;SDS011;11194;48.092;-1.382;2023-10-13T04:02:00;13.93;;;6.57;;
22060;SDS011;11194;48.092;-1.382;2023-10-13T04:04:29;16.13;;;6.82;;
22060;SDS011;11194;48.092;-1.382;2023-10-13T04:07:14;16.70;;;7.00;;
22060;SDS011;11194;48.092;-1.382;2023-10-13T04:09:59;11.80;;;6.75;;
22060;SDS011;11194;48.092;-1.382;2023-10-13T04:12:43;23.05;;;6.75;;
22060;SDS011;11194;48.092;-1.382;2023-10-13T04:15:28;11.70;;;6.32;;
22060;SDS011;11194;48.092;-1.382;2023-10-13T04:18:06;12.95;;;6.18;;
22060;SDS011;11194;48.092;-1.382;2023-10-13T04:20:44;12.35;;;6.40;;
22060;SDS011;11194;48.092;-1.382;2023-10-13T04:23:11;11.60;;;6.22;;
22060;SDS011;11194;48.092;-1.382;2023-10-13T04:25:44;18.73;;;6.03;;
22060;SDS011;11194;48.092;-1.382;2023-10-13T04:28:11;10.48;;;5.28;;
22060;SDS011;11194;48.092;-1.382;2023-10-13T04:30:52;9.93;;;4.90;;
22060;SDS011;11194;48.092;-1.382;2023-10-13T04:33:18;12.80;;;5.60;;
22060;SDS011;11194;48.092;-1.382;2023-10-13T04:36:30;10.68;;;5.80;;
22060;SDS011;11194;48.092;-1.382;2023-10-13T04:38:53;13.40;;;5.75;;
22060;SDS011;11194;48.092;-1.382;2023-10-13T04:41:28;10.48;;;5.85;;
22060;SDS011;11194;48.092;-1.382;2023-10-13T04:44:14;10.43;;;5.95;;
22060;SDS011;11194;48.092;-1.382;2023-10-13T04:46:59;9.48;;;5.30;;
22060;SDS011;11194;48.092;-1.382;2023-10-13T04:49:26;13.15;;;6.00;;
22060;SDS011;11194;48.092;-1.382;2023-10-13T04:51:55;8.60;;;6.10;;
22060;SDS011;11194;48.092;-1.382;2023-10-13T04:54:28;11.95;;;5.68;;
22060;SDS011;11194;48.092;-1.382;2023-10-13T04:57:26;10.63;;;5.03;;
22060;SDS011;11194;48.092;-1.382;2023-10-13T05:00:11;8.52;;;5.38;;
22060;SDS011;11194;48.092;-1.382;2023-10-13T05:02:45;11.80;;;5.47;;
22060;SDS011;11194;48.092;-1.382;2023-10-13T05:05:30;10.57;;;4.97;;
22060;SDS011;11194;48.092;-1.382;2023-10-13T05:08:15;10.60;;;5.05;;
22060;SDS011;11194;48.092;-1.382;2023-10-13T05:11:05;13.20;;;5.85;;
22060;SDS011;11194;48.092;-1.382;2023-10-13T05:14:00;13.20;;;5.68;;
22060;SDS011;11194;48.092;-1.382;2023-10-13T05:16:44;8.43;;;4.90;;
22060;SDS011;11194;48.092;-1.382;2023-10-13T05:19:29;11.73;;;5.55;;
22060;SDS011;11194;48.092;-1.382;2023-10-13T05:22:14;12.50;;;6.03;;
22060;SDS011;11194;48.092;-1.382;2023-10-13T05:24:58;9.52;;;5.60;;
22060;SDS011;11194;48.092;-1.382;2023-10-13T05:27:43;10.80;;;5.72;;
22060;SDS011;11194;48.092;-1.382;2023-10-13T05:30:28;10.27;;;5.40;;
22060;SDS011;11194;48.092;-1.382;2023-10-13T05:33:13;10.20;;;5.43;;
22060;SDS011;11194;48.092;-1.382;2023-10-13T05:35:57;14.52;;;6.70;;
22060;SDS011;11194;48.092;-1.382;2023-10-13T05:38:42;11.93;;;5.50;;
22060;SDS011;11194;48.092;-1.382;2023-10-13T05:41:27;14.90;;;6.15;;
22060;SDS011;11194;48.092;-1.382;2023-10-13T05:44:11;15.73;;;6.55;;
22060;SDS011;11194;48.092;-1.382;2023-10-13T05:46:56;14.02;;;5.95;;
22060;SDS011;11194;48.092;-1.382;2023-10-13T05:49:45;14.13;;;5.88;;
22060;SDS011;11194;48.092;-1.382;2023-10-13T05:52:30;14.75;;;5.20;;
22060;SDS011;11194;48.092;-1.382;2023-10-13T05:55:15;15.18;;;5.63;;
22060;SDS011;11194;48.092;-1.382;2023-10-13T05:58:00;14.18;;;5.78;;
22060;SDS011;11194;48.092;-1.382;2023-10-13T06:00:44;12.38;;;5.93;;
22060;SDS011;11194;48.092;-1.382;2023-10-13T06:03:29;10.15;;;6.40;;
22060;SDS011;11194;48.092;-1.382;2023-10-13T06:06:27;16.38;;;6.93;;
22060;SDS011;11194;48.092;-1.382;2023-10-13T06:09:12;14.73;;;6.65;;
22060;SDS011;11194;48.092;-1.382;2023-10-13T06:11:57;18.40;;;7.45;;
22060;SDS011;11194;48.092;-1.382;2023-10-13T06:14:45;12.80;;;7.32;;
22060;SDS011;11194;48.092;-1.382;2023-10-13T06:17:30;10.65;;;6.88;;
22060;SDS011;11194;48.092;-1.382;2023-10-13T06:20:14;11.15;;;6.25;;
22060;SDS011;11194;48.092;-1.382;2023-10-13T06:22:59;12.82;;;6.15;;
22060;SDS011;11194;48.092;-1.382;2023-10-13T06:25:50;8.55;;;5.45;;
22060;SDS011;11194;48.092;-1.382;2023-10-13T06:28:34;12.32;;;5.90;;
22060;SDS011;11194;48.092;-1.382;2023-10-13T06:31:07;11.43;;;6.32;;
22060;SDS011;11194;48.092;-1.382;2023-10-13T06:33:33;12.57;;;6.28;;
22060;SDS011;11194;48.092;-1.382;2023-10-13T06:36:02;13.82;;;6.93;;
22060;SDS011;11194;48.092;-1.382;2023-10-13T06:38:34;20.52;;;7.55;;
22060;SDS011;11194;48.092;-1.382;2023-10-13T06:41:03;17.33;;;7.03;;
22060;SDS011;11194;48.092;-1.382;2023-10-13T06:43:34;21.77;;;7.32;;
22060;SDS011;11194;48.092;-1.382;2023-10-13T06:46:04;12.90;;;6.28;;
22060;SDS011;11194;48.092;-1.382;2023-10-13T06:48:32;16.02;;;7.15;;
22060;SDS011;11194;48.092;-1.382;2023-10-13T06:51:00;16.75;;;7.45;;
22060;SDS011;11194;48.092;-1.382;2023-10-13T06:53:51;17.38;;;7.53;;
22060;SDS011;11194;48.092;-1.382;2023-10-13T06:56:21;16.17;;;6.78;;
22060;SDS011;11194;48.092;-1.382;2023-10-13T06:58:51;14.95;;;6.88;;
22060;SDS011;11194;48.092;-1.382;2023-10-13T07:01:24;13.90;;;6.85;;
22060;SDS011;11194;48.092;-1.382;2023-10-13T07:03:50;13.27;;;6.88;;
22060;SDS011;11194;48.092;-1.382;2023-10-13T07:06:20;16.52;;;7.45;;
22060;SDS011;11194;48.092;-1.382;2023-10-13T07:08:47;14.25;;;7.57;;
22060;SDS011;11194;48.092;-1.382;2023-10-13T07:11:24;16.98;;;7.20;;
22060;SDS011;11194;48.092;-1.382;2023-10-13T07:14:02;14.00;;;7.28;;
22060;SDS011;11194;48.092;-1.382;2023-10-13T07:16:55;17.50;;;7.20;;
22060;SDS011;11194;48.092;-1.382;2023-10-13T07:19:24;16.27;;;7.50;;
22060;SDS011;11194;48.092;-1.382;2023-10-13T07:21:53;14.02;;;7.35;;
22060;SDS011;11194;48.092;-1.382;2023-10-13T07:24:23;16.15;;;7.50;;
22060;SDS011;11194;48.092;-1.382;2023-10-13T07:26:51;16.58;;;7.07;;
22060;SDS011;11194;48.092;-1.382;2023-10-13T07:29:28;16.65;;;7.93;;
22060;SDS011;11194;48.092;-1.382;2023-10-13T07:31:54;17.55;;;7.57;;
22060;SDS011;11194;48.092;-1.382;2023-10-13T07:34:20;17.98;;;7.38;;
22060;SDS011;11194;48.092;-1.382;2023-10-13T07:36:52;14.73;;;7.30;;
22060;SDS011;11194;48.092;-1.382;2023-10-13T07:39:18;20.02;;;7.30;;
22060;SDS011;11194;48.092;-1.382;2023-10-13T07:41:48;22.63;;;8.00;;
22060;SDS011;11194;48.092;-1.382;2023-10-13T07:44:31;11.98;;;6.57;;
22060;SDS011;11194;48.092;-1.382;2023-10-13T07:46:58;14.88;;;8.00;;
22060;SDS011;11194;48.092;-1.382;2023-10-13T07:49:31;12.90;;;8.27;;
22060;SDS011;11194;48.092;-1.382;2023-10-13T07:52:01;21.38;;;8.65;;
22060;SDS011;11194;48.092;-1.382;2023-10-13T07:54:43;16.45;;;7.75;;
22060;SDS011;11194;48.092;-1.382;2023-10-13T07:57:12;17.05;;;8.10;;
22060;SDS011;11194;48.092;-1.382;2023-10-13T07:59:39;16.20;;;7.63;;
22060;SDS011;11194;48.092;-1.382;2023-10-13T08:02:14;14.68;;;7.82;;
22060;SDS011;11194;48.092;-1.382;2023-10-13T08:05:00;26.05;;;8.23;;
22060;SDS011;11194;48.092;-1.382;2023-10-13T08:07:26;18.38;;;7.82;;
22060;SDS011;11194;48.092;-1.382;2023-10-13T08:09:53;16.70;;;7.70;;
22060;SDS011;11194;48.092;-1.382;2023-10-13T08:12:19;19.05;;;8.07;;
22060;SDS011;11194;48.092;-1.382;2023-10-13T08:14:48;20.65;;;7.93;;
22060;SDS011;11194;48.092;-1.382;2023-10-13T08:17:14;18.70;;;8.45;;
22060;SDS011;11194;48.092;-1.382;2023-10-13T08:19:40;14.57;;;7.40;;
22060;SDS011;11194;48.092;-1.382;2023-10-13T08:22:14;19.73;;;7.70;;
22060;SDS011;11194;48.092;-1.382;2023-10-13T08:24:44;19.23;;;8.10;;
22060;SDS011;11194;48.092;-1.382;2023-10-13T08:27:10;14.65;;;7.25;;
22060;SDS011;11194;48.092;-1.382;2023-10-13T08:29:42;18.27;;;7.72;;
22060;SDS011;11194;48.092;-1.382;2023-10-13T08:32:21;15.95;;;7.70;;
22060;SDS011;11194;48.092;-1.382;2023-10-13T08:35:01;13.30;;;7.43;;
22060;SDS011;11194;48.092;-1.382;2023-10-13T08:37:28;29.52;;;8.35;;
22060;SDS011;11194;48.092;-1.382;2023-10-13T08:39:55;17.35;;;7.78;;
22060;SDS011;11194;48.092;-1.382;2023-10-13T08:42:31;15.85;;;7.53;;
22060;SDS011;11194;48.092;-1.382;2023-10-13T08:47:57;19.05;;;7.75;;
22060;SDS011;11194;48.092;-1.382;2023-10-13T08:50:32;20.17;;;8.77;;
22060;SDS011;11194;48.092;-1.382;2023-10-13T08:53:17;16.95;;;7.60;;
22060;SDS011;11194;48.092;-1.382;2023-10-13T08:55:56;15.48;;;7.50;;
22060;SDS011;11194;48.092;-1.382;2023-10-13T08:58:34;16.90;;;6.93;;
22060;SDS011;11194;48.092;-1.382;2023-10-13T09:01:22;18.15;;;7.07;;
22060;SDS011;11194;48.092;-1.382;2023-10-13T09:04:01;18.75;;;7.00;;
22060;SDS011;11194;48.092;-1.382;2023-10-13T09:06:45;17.42;;;6.22;;
22060;SDS011;11194;48.092;-1.382;2023-10-13T09:09:13;19.08;;;6.28;;
22060;SDS011;11194;48.092;-1.382;2023-10-13T09:14:39;16.02;;;5.35;;
22060;SDS011;11194;48.092;-1.382;2023-10-13T09:17:22;14.45;;;5.75;;
22060;SDS011;11194;48.092;-1.382;2023-10-13T09:20:08;16.65;;;5.80;;
22060;SDS011;11194;48.092;-1.382;2023-10-13T09:22:57;21.50;;;6.22;;
22060;SDS011;11194;48.092;-1.382;2023-10-13T09:25:26;16.45;;;5.80;;
22060;SDS011;11194;48.092;-1.382;2023-10-13T09:27:58;15.23;;;5.10;;
22060;SDS011;11194;48.092;-1.382;2023-10-13T09:30:26;15.75;;;5.18;;
22060;SDS011;11194;48.092;-1.382;2023-10-13T09:32:59;15.50;;;5.70;;
22060;SDS011;11194;48.092;-1.382;2023-10-13T09:35:34;18.88;;;5.70;;
22060;SDS011;11194;48.092;-1.382;2023-10-13T09:38:02;20.00;;;5.63;;
22060;SDS011;11194;48.092;-1.382;2023-10-13T09:40:29;19.40;;;5.82;;
22060;SDS011;11194;48.092;-1.382;2023-10-13T09:43:03;15.77;;;5.45;;
22060;SDS011;11194;48.092;-1.382;2023-10-13T09:45:33;13.43;;;5.60;;
22060;SDS011;11194;48.092;-1.382;2023-10-13T09:48:09;14.93;;;5.43;;
22060;SDS011;11194;48.092;-1.382;2023-10-13T09:50:46;15.68;;;5.93;;
22060;SDS011;11194;48.092;-1.382;2023-10-13T09:53:13;15.15;;;5.72;;
22060;SDS011;11194;48.092;-1.382;2023-10-13T09:55:44;17.88;;;6.22;;
22060;SDS011;11194;48.092;-1.382;2023-10-13T09:58:12;16.50;;;5.70;;
22060;SDS011;11194;48.092;-1.382;2023-10-13T10:00:57;20.38;;;6.25;;
22060;SDS011;11194;48.092;-1.382;2023-10-13T10:03:44;16.13;;;5.50;;
22060;SDS011;11194;48.092;-1.382;2023-10-13T10:06:21;25.15;;;6.50;;
22060;SDS011;11194;48.092;-1.382;2023-10-13T10:08:53;19.67;;;6.20;;
22060;SDS011;11194;48.092;-1.382;2023-10-13T10:11:55;13.85;;;5.72;;
22060;SDS011;11194;48.092;-1.382;2023-10-13T10:17:21;19.58;;;6.47;;
22060;SDS011;11194;48.092;-1.382;2023-10-13T10:19:52;15.88;;;6.88;;
22060;SDS011;11194;48.092;-1.382;2023-10-13T10:22:25;21.98;;;6.80;;
22060;SDS011;11194;48.092;-1.382;2023-10-13T10:25:04;19.80;;;7.35;;
22060;SDS011;11194;48.092;-1.382;2023-10-13T10:27:56;18.27;;;7.43;;
22060;SDS011;11194;48.092;-1.382;2023-10-13T10:30:29;18.25;;;7.88;;
22060;SDS011;11194;48.092;-1.382;2023-10-13T10:32:58;21.25;;;8.30;;
22060;SDS011;11194;48.092;-1.382;2023-10-13T10:35:24;16.92;;;7.70;;
22060;SDS011;11194;48.092;-1.382;2023-10-13T10:41:00;21.17;;;9.35;;
22060;SDS011;11194;48.092;-1.382;2023-10-13T10:43:38;22.27;;;9.35;;
22060;SDS011;11194;48.092;-1.382;2023-10-13T10:46:09;26.38;;;12.45;;
22060;SDS011;11194;48.092;-1.382;2023-10-13T10:48:36;19.90;;;11.30;;
22060;SDS011;11194;48.092;-1.382;2023-10-13T10:51:08;19.52;;;9.95;;
22060;SDS011;11194;48.092;-1.382;2023-10-13T10:53:39;23.05;;;9.98;;
22060;SDS011;11194;48.092;-1.382;2023-10-13T10:56:09;18.75;;;9.60;;
22060;SDS011;11194;48.092;-1.382;2023-10-13T10:58:48;28.80;;;9.65;;
22060;SDS011;11194;48.092;-1.382;2023-10-13T11:01:20;19.52;;;9.85;;
22060;SDS011;11194;48.092;-1.382;2023-10-13T11:03:56;18.80;;;8.40;;
22060;SDS011;11194;48.092;-1.382;2023-10-13T11:06:23;23.83;;;10.02;;
22060;SDS011;11194;48.092;-1.382;2023-10-13T11:08:49;18.20;;;8.60;;
22060;SDS011;11194;48.092;-1.382;2023-10-13T11:11:39;19.20;;;8.55;;
22060;SDS011;11194;48.092;-1.382;2023-10-13T11:14:08;23.63;;;8.55;;
22060;SDS011;11194;48.092;-1.382;2023-10-13T11:16:48;26.50;;;10.27;;
22060;SDS011;11194;48.092;-1.382;2023-10-13T11:19:36;20.63;;;10.23;;
22060;SDS011;11194;48.092;-1.382;2023-10-13T11:22:12;23.25;;;9.93;;
22060;SDS011;11194;48.092;-1.382;2023-10-13T11:24:57;17.15;;;8.45;;
22060;SDS011;11194;48.092;-1.382;2023-10-13T11:27:34;17.50;;;7.97;;
22060;SDS011;11194;48.092;-1.382;2023-10-13T11:30:24;19.55;;;8.43;;
22060;SDS011;11194;48.092;-1.382;2023-10-13T11:35:33;18.90;;;8.18;;
22060;SDS011;11194;48.092;-1.382;2023-10-13T11:38:18;23.02;;;9.07;;
22060;SDS011;11194;48.092;-1.382;2023-10-13T11:40:58;18.73;;;9.15;;
22060;SDS011;11194;48.092;-1.382;2023-10-13T11:43:34;18.83;;;9.27;;
22060;SDS011;11194;48.092;-1.382;2023-10-13T11:46:21;19.45;;;9.60;;
22060;SDS011;11194;48.092;-1.382;2023-10-13T11:49:10;20.05;;;9.18;;
22060;SDS011;11194;48.092;-1.382;2023-10-13T11:51:39;22.95;;;9.38;;
22060;SDS011;11194;48.092;-1.382;2023-10-13T11:54:22;20.17;;;10.55;;
22060;SDS011;11194;48.092;-1.382;2023-10-13T11:56:48;30.33;;;12.10;;
22060;SDS011;11194;48.092;-1.382;2023-10-13T11:59:15;34.42;;;13.50;;
22060;SDS011;11194;48.092;-1.382;2023-10-13T12:01:45;25.90;;;10.27;;
22060;SDS011;11194;48.092;-1.382;2023-10-13T12:04:30;22.85;;;11.23;;
22060;SDS011;11194;48.092;-1.382;2023-10-13T12:07:28;20.48;;;10.18;;
22060;SDS011;11194;48.092;-1.382;2023-10-13T12:10:10;20.58;;;8.70;;
22060;SDS011;11194;48.092;-1.382;2023-10-13T12:12:55;18.42;;;8.77;;
22060;SDS011;11194;48.092;-1.382;2023-10-13T12:15:21;20.05;;;8.68;;
22060;SDS011;11194;48.092;-1.382;2023-10-13T12:17:50;21.60;;;8.38;;
22060;SDS011;11194;48.092;-1.382;2023-10-13T12:20:16;19.63;;;7.93;;
22060;SDS011;11194;48.092;-1.382;2023-10-13T12:22:43;23.20;;;8.48;;
22060;SDS011;11194;48.092;-1.382;2023-10-13T12:25:30;18.77;;;8.48;;
22060;SDS011;11194;48.092;-1.382;2023-10-13T12:27:56;16.77;;;7.50;;
22060;SDS011;11194;48.092;-1.382;2023-10-13T12:30:23;19.23;;;7.22;;
22060;SDS011;11194;48.092;-1.382;2023-10-13T12:33:12;20.98;;;8.48;;
22060;SDS011;11194;48.092;-1.382;2023-10-13T12:35:41;25.55;;;8.38;;
22060;SDS011;11194;48.092;-1.382;2023-10-13T12:38:28;17.30;;;7.47;;
22060;SDS011;11194;48.092;-1.382;2023-10-13T12:41:12;23.88;;;8.52;;
22060;SDS011;11194;48.092;-1.382;2023-10-13T12:43:57;19.48;;;9.60;;
22060;SDS011;11194;48.092;-1.382;2023-10-13T12:46:46;28.08;;;12.48;;
22060;SDS011;11194;48.092;-1.382;2023-10-13T12:49:34;31.77;;;13.90;;
22060;SDS011;11194;48.092;-1.382;2023-10-13T12:52:06;27.60;;;14.80;;
22060;SDS011;11194;48.092;-1.382;2023-10-13T12:54:44;29.88;;;14.35;;
22060;SDS011;11194;48.092;-1.382;2023-10-13T12:57:24;24.73;;;13.95;;
22060;SDS011;11194;48.092;-1.382;2023-10-13T12:59:50;24.33;;;14.32;;
22060;SDS011;11194;48.092;-1.382;2023-10-13T13:02:22;28.80;;;14.48;;
22060;SDS011;11194;48.092;-1.382;2023-10-13T13:04:50;29.95;;;14.98;;
22060;SDS011;11194;48.092;-1.382;2023-10-13T13:07:19;39.33;;;15.52;;
22060;SDS011;11194;48.092;-1.382;2023-10-13T13:09:45;32.55;;;15.48;;
22060;SDS011;11194;48.092;-1.382;2023-10-13T13:12:11;24.83;;;14.98;;
22060;SDS011;11194;48.092;-1.382;2023-10-13T13:14:38;28.98;;;15.23;;
22060;SDS011;11194;48.092;-1.382;2023-10-13T13:17:06;29.02;;;16.20;;
22060;SDS011;11194;48.092;-1.382;2023-10-13T13:19:33;33.30;;;16.85;;
22060;SDS011;11194;48.092;-1.382;2023-10-13T13:22:04;28.98;;;17.85;;
22060;SDS011;11194;48.092;-1.382;2023-10-13T13:24:36;38.63;;;20.90;;
22060;SDS011;11194;48.092;-1.382;2023-10-13T13:27:08;42.80;;;19.50;;
22060;SDS011;11194;48.092;-1.382;2023-10-13T13:29:34;39.25;;;21.13;;
22060;SDS011;11194;48.092;-1.382;2023-10-13T13:32:03;40.10;;;20.63;;
22060;SDS011;11194;48.092;-1.382;2023-10-13T13:34:30;46.97;;;21.00;;
22060;SDS011;11194;48.092;-1.382;2023-10-13T13:36:59;41.17;;;21.55;;
22060;SDS011;11194;48.092;-1.382;2023-10-13T13:39:27;44.53;;;22.52;;
22060;SDS011;11194;48.092;-1.382;2023-10-13T13:41:55;36.95;;;23.67;;
22060;SDS011;11194;48.092;-1.382;2023-10-13T13:44:24;39.47;;;25.70;;
22060;SDS011;11194;48.092;-1.382;2023-10-13T13:47:00;48.00;;;26.80;;
22060;SDS011;11194;48.092;-1.382;2023-10-13T13:49:36;43.83;;;30.80;;
22060;SDS011;11194;48.092;-1.382;2023-10-13T13:52:08;50.90;;;30.90;;
22060;SDS011;11194;48.092;-1.382;2023-10-13T13:54:34;48.92;;;35.10;;
22060;SDS011;11194;48.092;-1.382;2023-10-13T13:57:01;54.55;;;39.80;;
22060;SDS011;11194;48.092;-1.382;2023-10-13T13:59:27;61.28;;;44.58;;
22060;SDS011;11194;48.092;-1.382;2023-10-13T14:01:59;56.42;;;48.42;;
22060;SDS011;11194;48.092;-1.382;2023-10-13T14:04:25;68.63;;;58.30;;
22060;SDS011;11194;48.092;-1.382;2023-10-13T14:06:56;63.20;;;54.15;;
22060;SDS011;11194;48.092;-1.382;2023-10-13T14:09:22;57.53;;;50.88;;
22060;SDS011;11194;48.092;-1.382;2023-10-13T14:12:05;59.17;;;42.67;;
22060;SDS011;11194;48.092;-1.382;2023-10-13T14:14:50;50.67;;;38.70;;
22060;SDS011;11194;48.092;-1.382;2023-10-13T14:17:23;31.88;;;26.48;;
22060;SDS011;11194;48.092;-1.382;2023-10-13T14:20:00;29.73;;;19.83;;
22060;SDS011;11194;48.092;-1.382;2023-10-13T14:22:34;33.13;;;19.13;;
22060;SDS011;11194;48.092;-1.382;2023-10-13T14:25:02;31.77;;;18.80;;
22060;SDS011;11194;48.092;-1.382;2023-10-13T14:27:34;32.53;;;20.92;;
22060;SDS011;11194;48.092;-1.382;2023-10-13T14:30:03;29.15;;;20.02;;
22060;SDS011;11194;48.092;-1.382;2023-10-13T14:32:30;34.97;;;17.20;;
22060;SDS011;11194;48.092;-1.382;2023-10-13T14:34:56;26.38;;;14.35;;
22060;SDS011;11194;48.092;-1.382;2023-10-13T14:37:22;28.35;;;14.57;;
22060;SDS011;11194;48.092;-1.382;2023-10-13T14:39:53;30.85;;;14.57;;
22060;SDS011;11194;48.092;-1.382;2023-10-13T14:42:23;19.42;;;13.82;;
22060;SDS011;11194;48.092;-1.382;2023-10-13T14:44:49;18.30;;;12.27;;
22060;SDS011;11194;48.092;-1.382;2023-10-13T14:47:21;25.63;;;11.55;;
22060;SDS011;11194;48.092;-1.382;2023-10-13T14:49:50;20.20;;;10.15;;
22060;SDS011;11194;48.092;-1.382;2023-10-13T14:52:19;21.95;;;9.20;;
22060;SDS011;11194;48.092;-1.382;2023-10-13T14:54:45;17.85;;;8.70;;
22060;SDS011;11194;48.092;-1.382;2023-10-13T14:57:13;15.02;;;8.93;;
22060;SDS011;11194;48.092;-1.382;2023-10-13T14:59:39;16.52;;;6.72;;
22060;SDS011;11194;48.092;-1.382;2023-10-13T15:02:06;13.32;;;5.93;;
22060;SDS011;11194;48.092;-1.382;2023-10-13T15:04:32;14.77;;;3.97;;
22060;SDS011;11194;48.092;-1.382;2023-10-13T15:07:01;13.15;;;2.92;;
22060;SDS011;11194;48.092;-1.382;2023-10-13T15:09:30;8.32;;;2.20;;
22060;SDS011;11194;48.092;-1.382;2023-10-13T15:11:56;12.45;;;2.95;;